createdAt,value
2022-09-25T00:01:38.609Z,93964.13
2022-09-25T00:16:40.220Z,93960.34
2022-09-25T00:31:42.006Z,93944.88
2022-09-25T00:46:44.489Z,93931.88
2022-09-25T01:01:46.625Z,93940.09
2022-09-25T01:16:56.137Z,93929.72
2022-09-25T01:32:03.950Z,93916.44
2022-09-25T01:47:18.767Z,93934.00
2022-09-25T02:02:22.659Z,93935.53
2022-09-25T02:17:48.548Z,93913.78
2022-09-25T02:32:50.012Z,93933.25
2022-09-25T02:47:51.443Z,93922.00
2022-09-25T03:02:55.044Z,93925.53
2022-09-25T03:17:58.158Z,93912.94
2022-09-25T03:32:59.637Z,93911.50
2022-09-25T03:48:01.243Z,93905.22
2022-09-25T04:03:02.721Z,93919.81
2022-09-25T04:18:06.249Z,93921.03
2022-09-25T04:33:27.585Z,93925.59
2022-09-25T04:48:29.246Z,93923.13
2022-09-25T05:03:30.829Z,93935.44
2022-09-25T05:18:32.376Z,93908.22
2022-09-25T05:33:34.566Z,93896.41
2022-09-25T05:48:36.485Z,93901.41
2022-09-25T06:03:37.964Z,93915.94
2022-09-25T06:18:39.417Z,93915.88
2022-09-25T06:33:41.074Z,93913.00
2022-09-25T06:48:43.370Z,93928.22
2022-09-25T07:03:44.820Z,93925.41
2022-09-25T07:18:46.745Z,93943.13
2022-09-25T07:33:48.552Z,93960.00
2022-09-25T07:48:50.423Z,93915.91
2022-09-25T08:03:51.886Z,93898.38
2022-09-25T08:18:53.434Z,93903.44
2022-09-25T08:33:54.917Z,93868.47
2022-09-25T08:49:03.686Z,93890.47
2022-09-25T09:04:11.107Z,93869.97
2022-09-25T09:19:13.115Z,93842.63
2022-09-25T09:34:46.545Z,93841.66
2022-09-25T09:50:06.860Z,93827.06
2022-09-25T10:05:12.185Z,93812.06
2022-09-25T10:20:20.827Z,93815.16
2022-09-25T10:35:24.508Z,93795.59
2022-09-25T10:50:30.631Z,93778.97
2022-09-25T11:05:33.924Z,93767.19
2022-09-25T11:20:36.784Z,93757.47
2022-09-25T11:36:00.044Z,93739.19
2022-09-25T11:51:07.387Z,93713.19
2022-09-25T12:06:20.049Z,93702.47
2022-09-25T12:21:34.063Z,93691.22
2022-09-25T12:36:38.109Z,93680.56
2022-09-25T12:51:40.458Z,93654.56
2022-09-25T13:06:51.495Z,93643.56
2022-09-25T13:21:59.490Z,93613.88
2022-09-25T13:37:04.106Z,93609.59
2022-09-25T13:52:25.490Z,93593.59
2022-09-25T14:07:29.552Z,93579.13
2022-09-25T14:22:34.105Z,93576.50
2022-09-25T14:37:39.532Z,93578.72
2022-09-25T14:52:42.555Z,93576.44
2022-09-25T15:07:45.010Z,93586.47
2022-09-25T15:22:57.042Z,93582.16
2022-09-25T15:38:10.619Z,93581.72
2022-09-25T15:53:20.798Z,93585.84
2022-09-25T16:08:25.096Z,93574.59
2022-09-25T16:23:30.029Z,93587.00
2022-09-25T16:38:41.421Z,93598.09
2022-09-25T16:53:42.861Z,93594.66
2022-09-25T17:08:44.309Z,93602.19
2022-09-25T17:23:46.283Z,93619.41
2022-09-25T17:38:47.842Z,93591.28
2022-09-25T17:53:49.393Z,93604.94
2022-09-25T18:08:51.380Z,93625.47
2022-09-25T18:23:52.838Z,93640.16
2022-09-25T18:38:54.341Z,93640.19
2022-09-25T18:53:56.048Z,93641.31
2022-09-25T19:08:58.187Z,93657.38
2022-09-25T19:23:59.739Z,93641.53
2022-09-25T19:39:01.865Z,93634.09
2022-09-25T19:54:03.967Z,93656.91
2022-09-25T20:09:05.890Z,93659.88
2022-09-25T20:24:08.094Z,93639.78
2022-09-25T20:39:09.754Z,93647.03
2022-09-25T20:54:11.487Z,93629.16
2022-09-25T21:09:23.342Z,93628.66
2022-09-25T21:24:24.842Z,93631.28
2022-09-25T21:39:26.291Z,93622.75
2022-09-25T21:54:28.386Z,93584.16
2022-09-25T22:16:16.138Z,93576.88
2022-09-25T22:31:22.304Z,93593.03
2022-09-25T22:46:24.757Z,93606.88
2022-09-25T23:01:29.539Z,93591.00
2022-09-25T23:16:32.019Z,93600.84
2022-09-25T23:31:33.983Z,93578.91
2022-09-25T23:46:36.906Z,93587.34
